San Leandro, CA (94577)

12:36 PM PDT on August 30, 2015 (GMT -0700)
Roosevelt Elementary | | Change Station
CLOSE
Current Station
Personal Weather Station
Location: San Leandro, CA
Elevation: 66 ft
Nearby Weather Stations

Elev 66 ft 37.74 °N, 122.15 °W | Updated 11 minutes ago

Clear
Clear
76.8 °F
Feels Like 79 °F
N
4.2
Wind Variable Wind from WSW

Today
High -- | Low -- °F
--% Chance of Precip.
Yesterday
High -- | Low -- °F
Precip. -- in
6:36 AM 7:40 PM
Full, 98% visible
Pressure 30.06 in
Visibility 10.0 miles
Clouds Few 800 ft
Heat Index 79 °F
Dew Point 59 °F
Humidity 54%
Rainfall 0.00 in
Snow Depth Not available.
UV 8 out of 12
Pollen 6.40 out of 12
Air Quality Not available.
Flu Activity Not available.
METAR KOAK 301853Z 26010KT 10SM FEW008 22/14 A3006 RMK AO2 SLP177 T02220144 $
Pressure 30.06 in
Visibility 10.0 miles
Clouds Few 800 ft
Heat Index 79 °F
Dew Point 59 °F
Humidity 54%
Rainfall 0.00 in
Snow Depth Not available.
UV 8 out of 12
Pollen 6.40 out of 12
Air Quality Not available.
Flu Activity Not available.
METAR KOAK 301853Z 26010KT 10SM FEW008 22/14 A3006 RMK AO2 SLP177 T02220144 $

10-Day Weather Forecast

×

Almanac

Astronomy

Aug. 30, 2015 Rise Set
Actual Time
Civil Twilight
Nautical Twilight
Astronomical Twilight
Moon
Length of Visible Light
Length of Day
Tomorrow will be .
, % of the Moon is Illuminated

Today's Extremes

State Highs State Lows

Community

WunderPhotos

Upload Photos

1,851,040 photos uploaded!

WunderBlogs® & News

Nearby

Air Quality

  Air Quality AQ Index Pollutant
Not available.

Snow Depth

Station Depth Elevation

Earthquake Activity

City Distance Mag. Time & Date
Minimum magnitude displayed is 2.5.

Coastal Water Temperatures

Place Temperature

Stations

Nearby Weather Stations

Station Location Temp. Windchill Dew Point Humidity Wind Precip. Elev Updated Type